Terminal Aerodrome Forecast
Issued by NWS Upton, NY

Home | Current Version | Previous Version | Text Only | Print | Product List | Glossary On
Versions: 1 2 3 4 5 6 7 8 9 10 11 12 13 14 15 16 17 18 19 20 21 22 23 24 25 26 27 28 29 30 31
698
FTUS41 KOKX 271139
TAFLGA
TAF
KLGA 271139Z 2712/2812 06009KT 1SM -DZ BR OVC004
     FM271400 16007KT 2SM -RA BR OVC006 WS020/22035KT
     FM271600 18008KT 4SM -RA BR OVC010
     FM271800 21008KT P6SM OVC012
     FM272100 21008KT P6SM BKN015
     FM280300 19005KT 5SM BR OVC020
     FM280800 10003KT 1SM BR OVC007=

USA.gov is the U.S. government's official web portal to all federal, state and local government web resources and services.